<?xml version="1.0" encoding="UTF-8" standalone="no" ?>
<gpx xmlns="http://www.topografix.com/GPX/1/1" xmlns:xsi="http://www.w3.org/2001/XMLSchema-instance" xsi:schemaLocation="http://www.topografix.com/GPX/1/1 http://www.topografix.com/GPX/1/1/gpx.xsd" version="1.1" creator="VisuGPX - https://www.visugpx.com">
  <metadata>
    <name>Banne: Chemin de la Vierge - Ermitage St Eugène</name>
    <desc><![CDATA[Boucle de la Vierge: Balade ludique dans les roches escarpées du bois de Païolive.
Aller-Retour vers l\'Ermitage St Eugène.]]></desc>
  </metadata>
  <trk>
    <name><![CDATA[2012-06-24-01]]></name>
    <trkseg>
      <trkpt lat="44.39463" lon="4.17805">
        <ele>206.1</ele>
        <time>2012-06-24T12:59:00Z</time>
      </trkpt>
      <trkpt lat="44.39459" lon="4.17816">
        <ele>199.3</ele>
        <time>2012-06-24T13:00:53Z</time>
      </trkpt>
      <trkpt lat="44.39461" lon="4.17828">
        <ele>196.5</ele>
        <time>2012-06-24T13:01:05Z</time>
      </trkpt>
      <trkpt lat="44.39464" lon="4.17839">
        <ele>199.5</ele>
        <time>2012-06-24T13:01:15Z</time>
      </trkpt>
      <trkpt lat="44.3946" lon="4.17849">
        <ele>197.6</ele>
        <time>2012-06-24T13:01:22Z</time>
      </trkpt>
      <trkpt lat="44.39452" lon="4.17855">
        <ele>196.3</ele>
        <time>2012-06-24T13:01:31Z</time>
      </trkpt>
      <trkpt lat="44.39444" lon="4.17857">
        <ele>195.3</ele>
        <time>2012-06-24T13:01:42Z</time>
      </trkpt>
      <trkpt lat="44.39435" lon="4.17856">
        <ele>200.5</ele>
        <time>2012-06-24T13:01:53Z</time>
      </trkpt>
      <trkpt lat="44.39428" lon="4.17856">
        <ele>197.6</ele>
        <time>2012-06-24T13:01:59Z</time>
      </trkpt>
      <trkpt lat="44.3942" lon="4.17854">
        <ele>194.3</ele>
        <time>2012-06-24T13:02:09Z</time>
      </trkpt>
      <trkpt lat="44.39415" lon="4.17844">
        <ele>192</ele>
        <time>2012-06-24T13:02:21Z</time>
      </trkpt>
      <trkpt lat="44.39412" lon="4.17834">
        <ele>190.1</ele>
        <time>2012-06-24T13:02:30Z</time>
      </trkpt>
      <trkpt lat="44.39405" lon="4.17826">
        <ele>195.1</ele>
        <time>2012-06-24T13:02:41Z</time>
      </trkpt>
      <trkpt lat="44.39397" lon="4.17822">
        <ele>189.3</ele>
        <time>2012-06-24T13:02:52Z</time>
      </trkpt>
      <trkpt lat="44.39389" lon="4.17822">
        <ele>187.8</ele>
        <time>2012-06-24T13:03:01Z</time>
      </trkpt>
      <trkpt lat="44.3938" lon="4.17821">
        <ele>187.5</ele>
        <time>2012-06-24T13:03:10Z</time>
      </trkpt>
      <trkpt lat="44.39372" lon="4.1782">
        <ele>194.6</ele>
        <time>2012-06-24T13:03:26Z</time>
      </trkpt>
      <trkpt lat="44.39366" lon="4.17813">
        <ele>194.8</ele>
        <time>2012-06-24T13:03:34Z</time>
      </trkpt>
      <trkpt lat="44.39358" lon="4.17807">
        <ele>191.5</ele>
        <time>2012-06-24T13:03:42Z</time>
      </trkpt>
      <trkpt lat="44.39353" lon="4.17797">
        <ele>192.6</ele>
        <time>2012-06-24T13:04:00Z</time>
      </trkpt>
      <trkpt lat="44.3935" lon="4.17786">
        <ele>192.6</ele>
        <time>2012-06-24T13:04:11Z</time>
      </trkpt>
      <trkpt lat="44.39348" lon="4.17776">
        <ele>192.5</ele>
        <time>2012-06-24T13:04:19Z</time>
      </trkpt>
      <trkpt lat="44.3935" lon="4.17764">
        <ele>195.3</ele>
        <time>2012-06-24T13:04:26Z</time>
      </trkpt>
      <trkpt lat="44.39351" lon="4.17752">
        <ele>200.8</ele>
        <time>2012-06-24T13:04:43Z</time>
      </trkpt>
      <trkpt lat="44.39348" lon="4.17741">
        <ele>211.5</ele>
        <time>2012-06-24T13:04:58Z</time>
      </trkpt>
      <trkpt lat="44.3935" lon="4.17729">
        <ele>204.1</ele>
        <time>2012-06-24T13:05:21Z</time>
      </trkpt>
      <trkpt lat="44.39341" lon="4.1773">
        <ele>197.8</ele>
        <time>2012-06-24T13:05:49Z</time>
      </trkpt>
      <trkpt lat="44.39333" lon="4.17732">
        <ele>200.1</ele>
        <time>2012-06-24T13:06:02Z</time>
      </trkpt>
      <trkpt lat="44.39325" lon="4.17731">
        <ele>199.6</ele>
        <time>2012-06-24T13:06:09Z</time>
      </trkpt>
      <trkpt lat="44.39317" lon="4.1773">
        <ele>202.5</ele>
        <time>2012-06-24T13:06:18Z</time>
      </trkpt>
      <trkpt lat="44.39309" lon="4.17726">
        <ele>205.8</ele>
        <time>2012-06-24T13:06:29Z</time>
      </trkpt>
      <trkpt lat="44.39305" lon="4.17715">
        <ele>204.1</ele>
        <time>2012-06-24T13:06:51Z</time>
      </trkpt>
      <trkpt lat="44.39303" lon="4.17703">
        <ele>199.6</ele>
        <time>2012-06-24T13:07:29Z</time>
      </trkpt>
      <trkpt lat="44.39305" lon="4.17691">
        <ele>196.6</ele>
        <time>2012-06-24T13:07:46Z</time>
      </trkpt>
      <trkpt lat="44.3931" lon="4.17681">
        <ele>202.1</ele>
        <time>2012-06-24T13:08:04Z</time>
      </trkpt>
      <trkpt lat="44.39303" lon="4.17676">
        <ele>218.1</ele>
        <time>2012-06-24T13:09:01Z</time>
      </trkpt>
      <trkpt lat="44.39294" lon="4.17672">
        <ele>214.1</ele>
        <time>2012-06-24T13:09:13Z</time>
      </trkpt>
      <trkpt lat="44.39286" lon="4.1767">
        <ele>216.6</ele>
        <time>2012-06-24T13:09:30Z</time>
      </trkpt>
      <trkpt lat="44.39277" lon="4.1767">
        <ele>217.6</ele>
        <time>2012-06-24T13:09:43Z</time>
      </trkpt>
      <trkpt lat="44.39269" lon="4.17671">
        <ele>220.6</ele>
        <time>2012-06-24T13:09:53Z</time>
      </trkpt>
      <trkpt lat="44.39261" lon="4.17671">
        <ele>221.3</ele>
        <time>2012-06-24T13:10:08Z</time>
      </trkpt>
      <trkpt lat="44.39252" lon="4.17672">
        <ele>222.3</ele>
        <time>2012-06-24T13:10:27Z</time>
      </trkpt>
      <trkpt lat="44.39244" lon="4.17676">
        <ele>223.1</ele>
        <time>2012-06-24T13:10:38Z</time>
      </trkpt>
      <trkpt lat="44.39235" lon="4.17675">
        <ele>224</ele>
        <time>2012-06-24T13:10:54Z</time>
      </trkpt>
      <trkpt lat="44.39226" lon="4.17672">
        <ele>220.6</ele>
        <time>2012-06-24T13:11:06Z</time>
      </trkpt>
      <trkpt lat="44.39219" lon="4.17676">
        <ele>220.6</ele>
        <time>2012-06-24T13:11:23Z</time>
      </trkpt>
      <trkpt lat="44.39211" lon="4.17678">
        <ele>218.8</ele>
        <time>2012-06-24T13:11:30Z</time>
      </trkpt>
      <trkpt lat="44.39203" lon="4.1768">
        <ele>220.3</ele>
        <time>2012-06-24T13:11:37Z</time>
      </trkpt>
      <trkpt lat="44.39194" lon="4.17684">
        <ele>217.3</ele>
        <time>2012-06-24T13:11:55Z</time>
      </trkpt>
      <trkpt lat="44.39187" lon="4.17688">
        <ele>215.3</ele>
        <time>2012-06-24T13:12:17Z</time>
      </trkpt>
      <trkpt lat="44.39178" lon="4.17691">
        <ele>218.8</ele>
        <time>2012-06-24T13:12:41Z</time>
      </trkpt>
      <trkpt lat="44.3917" lon="4.17693">
        <ele>208.5</ele>
        <time>2012-06-24T13:13:02Z</time>
      </trkpt>
      <trkpt lat="44.39161" lon="4.17694">
        <ele>210</ele>
        <time>2012-06-24T13:13:12Z</time>
      </trkpt>
      <trkpt lat="44.39161" lon="4.17706">
        <ele>216.1</ele>
        <time>2012-06-24T13:13:52Z</time>
      </trkpt>
      <trkpt lat="44.39153" lon="4.17711">
        <ele>215</ele>
        <time>2012-06-24T13:13:58Z</time>
      </trkpt>
      <trkpt lat="44.39159" lon="4.17717">
        <ele>210.3</ele>
        <time>2012-06-24T13:14:10Z</time>
      </trkpt>
      <trkpt lat="44.39151" lon="4.17718">
        <ele>204</ele>
        <time>2012-06-24T13:14:38Z</time>
      </trkpt>
      <trkpt lat="44.39159" lon="4.17717">
        <ele>215.8</ele>
        <time>2012-06-24T13:15:02Z</time>
      </trkpt>
      <trkpt lat="44.39166" lon="4.17724">
        <ele>220.6</ele>
        <time>2012-06-24T13:15:27Z</time>
      </trkpt>
      <trkpt lat="44.39172" lon="4.17732">
        <ele>221.8</ele>
        <time>2012-06-24T13:15:34Z</time>
      </trkpt>
      <trkpt lat="44.39166" lon="4.17741">
        <ele>217.6</ele>
        <time>2012-06-24T13:16:34Z</time>
      </trkpt>
      <trkpt lat="44.39175" lon="4.17745">
        <ele>207.8</ele>
        <time>2012-06-24T13:17:11Z</time>
      </trkpt>
      <trkpt lat="44.39166" lon="4.17742">
        <ele>221.1</ele>
        <time>2012-06-24T13:17:36Z</time>
      </trkpt>
      <trkpt lat="44.39169" lon="4.17754">
        <ele>217.1</ele>
        <time>2012-06-24T13:17:53Z</time>
      </trkpt>
      <trkpt lat="44.39169" lon="4.17742">
        <ele>217.3</ele>
        <time>2012-06-24T13:18:57Z</time>
      </trkpt>
      <trkpt lat="44.39163" lon="4.17733">
        <ele>211</ele>
        <time>2012-06-24T13:19:16Z</time>
      </trkpt>
      <trkpt lat="44.3917" lon="4.1774">
        <ele>209.1</ele>
        <time>2012-06-24T13:20:07Z</time>
      </trkpt>
      <trkpt lat="44.39163" lon="4.17737">
        <ele>206.8</ele>
        <time>2012-06-24T13:20:37Z</time>
      </trkpt>
      <trkpt lat="44.39157" lon="4.1773">
        <ele>208.6</ele>
        <time>2012-06-24T13:20:53Z</time>
      </trkpt>
      <trkpt lat="44.3915" lon="4.17723">
        <ele>204.1</ele>
        <time>2012-06-24T13:21:21Z</time>
      </trkpt>
      <trkpt lat="44.39158" lon="4.17719">
        <ele>220.3</ele>
        <time>2012-06-24T13:21:50Z</time>
      </trkpt>
      <trkpt lat="44.39166" lon="4.17725">
        <ele>220.3</ele>
        <time>2012-06-24T13:21:53Z</time>
      </trkpt>
      <trkpt lat="44.39173" lon="4.1773">
        <ele>219.8</ele>
        <time>2012-06-24T13:21:56Z</time>
      </trkpt>
      <trkpt lat="44.39174" lon="4.17739">
        <ele>220.5</ele>
        <time>2012-06-24T13:22:00Z</time>
      </trkpt>
      <trkpt lat="44.39158" lon="4.17729">
        <ele>219.3</ele>
        <time>2012-06-24T13:22:01Z</time>
      </trkpt>
      <trkpt lat="44.39146" lon="4.17721">
        <ele>218.5</ele>
        <time>2012-06-24T13:22:02Z</time>
      </trkpt>
      <trkpt lat="44.39137" lon="4.17722">
        <ele>211.1</ele>
        <time>2012-06-24T13:22:25Z</time>
      </trkpt>
      <trkpt lat="44.39137" lon="4.1771">
        <ele>201.1</ele>
        <time>2012-06-24T13:23:15Z</time>
      </trkpt>
      <trkpt lat="44.39144" lon="4.17702">
        <ele>206.8</ele>
        <time>2012-06-24T13:23:35Z</time>
      </trkpt>
      <trkpt lat="44.39136" lon="4.17696">
        <ele>213.6</ele>
        <time>2012-06-24T13:24:12Z</time>
      </trkpt>
      <trkpt lat="44.39129" lon="4.17689">
        <ele>212.3</ele>
        <time>2012-06-24T13:24:35Z</time>
      </trkpt>
      <trkpt lat="44.39121" lon="4.17687">
        <ele>212.3</ele>
        <time>2012-06-24T13:24:54Z</time>
      </trkpt>
      <trkpt lat="44.39113" lon="4.17686">
        <ele>214.8</ele>
        <time>2012-06-24T13:25:03Z</time>
      </trkpt>
      <trkpt lat="44.39104" lon="4.17686">
        <ele>214.3</ele>
        <time>2012-06-24T13:25:15Z</time>
      </trkpt>
      <trkpt lat="44.39095" lon="4.17689">
        <ele>211.5</ele>
        <time>2012-06-24T13:25:35Z</time>
      </trkpt>
      <trkpt lat="44.39089" lon="4.17695">
        <ele>205.6</ele>
        <time>2012-06-24T13:25:55Z</time>
      </trkpt>
      <trkpt lat="44.3908" lon="4.17698">
        <ele>207.6</ele>
        <time>2012-06-24T13:26:07Z</time>
      </trkpt>
      <trkpt lat="44.39072" lon="4.17697">
        <ele>211.8</ele>
        <time>2012-06-24T13:26:29Z</time>
      </trkpt>
      <trkpt lat="44.39064" lon="4.17695">
        <ele>213.3</ele>
        <time>2012-06-24T13:26:48Z</time>
      </trkpt>
      <trkpt lat="44.39055" lon="4.177">
        <ele>212.1</ele>
        <time>2012-06-24T13:27:03Z</time>
      </trkpt>
      <trkpt lat="44.39049" lon="4.17707">
        <ele>211.3</ele>
        <time>2012-06-24T13:27:20Z</time>
      </trkpt>
      <trkpt lat="44.3904" lon="4.1771">
        <ele>214.8</ele>
        <time>2012-06-24T13:27:32Z</time>
      </trkpt>
      <trkpt lat="44.39032" lon="4.17711">
        <ele>217</ele>
        <time>2012-06-24T13:27:44Z</time>
      </trkpt>
      <trkpt lat="44.39023" lon="4.17714">
        <ele>216.1</ele>
        <time>2012-06-24T13:27:56Z</time>
      </trkpt>
      <trkpt lat="44.39019" lon="4.17725">
        <ele>212.3</ele>
        <time>2012-06-24T13:28:16Z</time>
      </trkpt>
      <trkpt lat="44.39021" lon="4.17737">
        <ele>211.1</ele>
        <time>2012-06-24T13:28:33Z</time>
      </trkpt>
      <trkpt lat="44.39028" lon="4.17742">
        <ele>208.8</ele>
        <time>2012-06-24T13:28:48Z</time>
      </trkpt>
      <trkpt lat="44.39034" lon="4.17751">
        <ele>211.3</ele>
        <time>2012-06-24T13:28:56Z</time>
      </trkpt>
      <trkpt lat="44.39039" lon="4.1776">
        <ele>214.8</ele>
        <time>2012-06-24T13:29:04Z</time>
      </trkpt>
      <trkpt lat="44.39038" lon="4.17772">
        <ele>213.8</ele>
        <time>2012-06-24T13:29:17Z</time>
      </trkpt>
      <trkpt lat="44.39033" lon="4.17783">
        <ele>210.3</ele>
        <time>2012-06-24T13:29:32Z</time>
      </trkpt>
      <trkpt lat="44.3903" lon="4.17795">
        <ele>216</ele>
        <time>2012-06-24T13:29:44Z</time>
      </trkpt>
      <trkpt lat="44.39027" lon="4.17806">
        <ele>217.6</ele>
        <time>2012-06-24T13:29:55Z</time>
      </trkpt>
      <trkpt lat="44.39021" lon="4.17816">
        <ele>219.6</ele>
        <time>2012-06-24T13:30:04Z</time>
      </trkpt>
      <trkpt lat="44.39014" lon="4.17821">
        <ele>216.1</ele>
        <time>2012-06-24T13:30:18Z</time>
      </trkpt>
      <trkpt lat="44.39006" lon="4.17826">
        <ele>218.1</ele>
        <time>2012-06-24T13:30:31Z</time>
      </trkpt>
      <trkpt lat="44.38998" lon="4.17832">
        <ele>215.8</ele>
        <time>2012-06-24T13:30:54Z</time>
      </trkpt>
      <trkpt lat="44.38995" lon="4.17844">
        <ele>220</ele>
        <time>2012-06-24T13:31:05Z</time>
      </trkpt>
      <trkpt lat="44.38999" lon="4.17854">
        <ele>223.1</ele>
        <time>2012-06-24T13:31:18Z</time>
      </trkpt>
      <trkpt lat="44.39005" lon="4.17862">
        <ele>225.3</ele>
        <time>2012-06-24T13:31:27Z</time>
      </trkpt>
      <trkpt lat="44.39011" lon="4.17871">
        <ele>226.6</ele>
        <time>2012-06-24T13:31:40Z</time>
      </trkpt>
      <trkpt lat="44.39018" lon="4.17878">
        <ele>227.6</ele>
        <time>2012-06-24T13:31:52Z</time>
      </trkpt>
      <trkpt lat="44.39024" lon="4.17887">
        <ele>226.3</ele>
        <time>2012-06-24T13:32:05Z</time>
      </trkpt>
      <trkpt lat="44.3903" lon="4.17896">
        <ele>228.6</ele>
        <time>2012-06-24T13:32:17Z</time>
      </trkpt>
      <trkpt lat="44.3903" lon="4.17907">
        <ele>230.3</ele>
        <time>2012-06-24T13:32:35Z</time>
      </trkpt>
      <trkpt lat="44.39038" lon="4.17914">
        <ele>227.3</ele>
        <time>2012-06-24T13:32:59Z</time>
      </trkpt>
      <trkpt lat="44.39044" lon="4.17905">
        <ele>219.6</ele>
        <time>2012-06-24T13:33:14Z</time>
      </trkpt>
      <trkpt lat="44.39053" lon="4.17908">
        <ele>220.3</ele>
        <time>2012-06-24T13:33:30Z</time>
      </trkpt>
      <trkpt lat="44.3906" lon="4.17914">
        <ele>222</ele>
        <time>2012-06-24T13:33:44Z</time>
      </trkpt>
      <trkpt lat="44.39067" lon="4.17923">
        <ele>224.1</ele>
        <time>2012-06-24T13:33:58Z</time>
      </trkpt>
      <trkpt lat="44.39072" lon="4.17932">
        <ele>223.8</ele>
        <time>2012-06-24T13:34:13Z</time>
      </trkpt>
      <trkpt lat="44.39079" lon="4.17941">
        <ele>223.5</ele>
        <time>2012-06-24T13:34:27Z</time>
      </trkpt>
      <trkpt lat="44.39085" lon="4.1795">
        <ele>221.8</ele>
        <time>2012-06-24T13:34:44Z</time>
      </trkpt>
      <trkpt lat="44.39091" lon="4.17958">
        <ele>221.1</ele>
        <time>2012-06-24T13:34:55Z</time>
      </trkpt>
      <trkpt lat="44.3909" lon="4.1797">
        <ele>222.3</ele>
        <time>2012-06-24T13:35:12Z</time>
      </trkpt>
      <trkpt lat="44.39092" lon="4.17982">
        <ele>218.6</ele>
        <time>2012-06-24T13:35:28Z</time>
      </trkpt>
      <trkpt lat="44.39096" lon="4.17992">
        <ele>220</ele>
        <time>2012-06-24T13:35:40Z</time>
      </trkpt>
      <trkpt lat="44.39099" lon="4.18004">
        <ele>217.8</ele>
        <time>2012-06-24T13:35:55Z</time>
      </trkpt>
      <trkpt lat="44.39103" lon="4.18015">
        <ele>216.5</ele>
        <time>2012-06-24T13:36:09Z</time>
      </trkpt>
      <trkpt lat="44.39108" lon="4.18025">
        <ele>216.8</ele>
        <time>2012-06-24T13:36:23Z</time>
      </trkpt>
      <trkpt lat="44.39117" lon="4.18029">
        <ele>215.8</ele>
        <time>2012-06-24T13:36:45Z</time>
      </trkpt>
      <trkpt lat="44.39124" lon="4.18031">
        <ele>204.6</ele>
        <time>2012-06-24T13:37:12Z</time>
      </trkpt>
      <trkpt lat="44.39133" lon="4.18032">
        <ele>208.8</ele>
        <time>2012-06-24T13:37:25Z</time>
      </trkpt>
      <trkpt lat="44.39141" lon="4.18034">
        <ele>208.8</ele>
        <time>2012-06-24T13:37:37Z</time>
      </trkpt>
      <trkpt lat="44.39149" lon="4.18039">
        <ele>208.3</ele>
        <time>2012-06-24T13:38:02Z</time>
      </trkpt>
      <trkpt lat="44.39155" lon="4.18046">
        <ele>221.6</ele>
        <time>2012-06-24T13:38:39Z</time>
      </trkpt>
      <trkpt lat="44.39155" lon="4.18033">
        <ele>211.3</ele>
        <time>2012-06-24T13:40:48Z</time>
      </trkpt>
      <trkpt lat="44.3915" lon="4.18024">
        <ele>208</ele>
        <time>2012-06-24T13:41:03Z</time>
      </trkpt>
      <trkpt lat="44.39142" lon="4.18019">
        <ele>202.3</ele>
        <time>2012-06-24T13:42:00Z</time>
      </trkpt>
      <trkpt lat="44.39141" lon="4.18007">
        <ele>203.3</ele>
        <time>2012-06-24T13:42:13Z</time>
      </trkpt>
      <trkpt lat="44.39143" lon="4.17996">
        <ele>211.8</ele>
        <time>2012-06-24T13:42:26Z</time>
      </trkpt>
      <trkpt lat="44.39148" lon="4.17986">
        <ele>212.3</ele>
        <time>2012-06-24T13:42:41Z</time>
      </trkpt>
      <trkpt lat="44.39156" lon="4.17979">
        <ele>208.3</ele>
        <time>2012-06-24T13:43:29Z</time>
      </trkpt>
      <trkpt lat="44.39163" lon="4.17972">
        <ele>203.6</ele>
        <time>2012-06-24T13:43:40Z</time>
      </trkpt>
      <trkpt lat="44.39157" lon="4.17963">
        <ele>205.6</ele>
        <time>2012-06-24T13:44:27Z</time>
      </trkpt>
      <trkpt lat="44.39149" lon="4.17962">
        <ele>208.1</ele>
        <time>2012-06-24T13:44:43Z</time>
      </trkpt>
      <trkpt lat="44.3914" lon="4.17959">
        <ele>217.1</ele>
        <time>2012-06-24T13:45:01Z</time>
      </trkpt>
      <trkpt lat="44.39132" lon="4.17955">
        <ele>201.3</ele>
        <time>2012-06-24T13:46:09Z</time>
      </trkpt>
      <trkpt lat="44.39129" lon="4.17946">
        <ele>220.5</ele>
        <time>2012-06-24T13:47:03Z</time>
      </trkpt>
      <trkpt lat="44.39123" lon="4.17939">
        <ele>220.3</ele>
        <time>2012-06-24T13:47:05Z</time>
      </trkpt>
      <trkpt lat="44.3912" lon="4.17933">
        <ele>220.5</ele>
        <time>2012-06-24T13:47:07Z</time>
      </trkpt>
      <trkpt lat="44.3911" lon="4.17928">
        <ele>219.6</ele>
        <time>2012-06-24T13:47:08Z</time>
      </trkpt>
      <trkpt lat="44.39106" lon="4.17925">
        <ele>219.6</ele>
        <time>2012-06-24T13:47:09Z</time>
      </trkpt>
      <trkpt lat="44.39101" lon="4.17922">
        <ele>219.6</ele>
        <time>2012-06-24T13:47:10Z</time>
      </trkpt>
      <trkpt lat="44.39093" lon="4.17924">
        <ele>219.3</ele>
        <time>2012-06-24T13:47:12Z</time>
      </trkpt>
      <trkpt lat="44.39089" lon="4.17928">
        <ele>218.1</ele>
        <time>2012-06-24T13:47:14Z</time>
      </trkpt>
      <trkpt lat="44.39105" lon="4.17935">
        <ele>217</ele>
        <time>2012-06-24T13:47:15Z</time>
      </trkpt>
      <trkpt lat="44.3912" lon="4.17941">
        <ele>215.3</ele>
        <time>2012-06-24T13:47:16Z</time>
      </trkpt>
      <trkpt lat="44.39128" lon="4.17946">
        <ele>209.6</ele>
        <time>2012-06-24T13:47:21Z</time>
      </trkpt>
      <trkpt lat="44.39133" lon="4.17957">
        <ele>211.6</ele>
        <time>2012-06-24T13:47:26Z</time>
      </trkpt>
      <trkpt lat="44.39141" lon="4.17956">
        <ele>212.3</ele>
        <time>2012-06-24T13:48:34Z</time>
      </trkpt>
      <trkpt lat="44.39145" lon="4.17944">
        <ele>205.3</ele>
        <time>2012-06-24T13:49:09Z</time>
      </trkpt>
      <trkpt lat="44.39145" lon="4.17932">
        <ele>206.8</ele>
        <time>2012-06-24T13:49:43Z</time>
      </trkpt>
      <trkpt lat="44.39152" lon="4.17926">
        <ele>204.8</ele>
        <time>2012-06-24T13:49:57Z</time>
      </trkpt>
      <trkpt lat="44.39154" lon="4.17914">
        <ele>204.8</ele>
        <time>2012-06-24T13:50:22Z</time>
      </trkpt>
      <trkpt lat="44.39159" lon="4.17905">
        <ele>209.1</ele>
        <time>2012-06-24T13:50:39Z</time>
      </trkpt>
      <trkpt lat="44.39167" lon="4.179">
        <ele>210.1</ele>
        <time>2012-06-24T13:51:15Z</time>
      </trkpt>
      <trkpt lat="44.39176" lon="4.179">
        <ele>213.8</ele>
        <time>2012-06-24T13:51:31Z</time>
      </trkpt>
      <trkpt lat="44.39184" lon="4.17896">
        <ele>210.1</ele>
        <time>2012-06-24T13:51:42Z</time>
      </trkpt>
      <trkpt lat="44.39178" lon="4.17887">
        <ele>212.3</ele>
        <time>2012-06-24T13:52:12Z</time>
      </trkpt>
      <trkpt lat="44.3917" lon="4.17886">
        <ele>212.8</ele>
        <time>2012-06-24T13:52:29Z</time>
      </trkpt>
      <trkpt lat="44.39162" lon="4.17879">
        <ele>208.8</ele>
        <time>2012-06-24T13:53:14Z</time>
      </trkpt>
      <trkpt lat="44.3917" lon="4.17883">
        <ele>212.1</ele>
        <time>2012-06-24T13:54:13Z</time>
      </trkpt>
      <trkpt lat="44.39178" lon="4.17887">
        <ele>214</ele>
        <time>2012-06-24T13:54:26Z</time>
      </trkpt>
      <trkpt lat="44.39187" lon="4.17886">
        <ele>211.6</ele>
        <time>2012-06-24T13:54:42Z</time>
      </trkpt>
      <trkpt lat="44.39196" lon="4.17887">
        <ele>211.3</ele>
        <time>2012-06-24T13:54:48Z</time>
      </trkpt>
      <trkpt lat="44.39199" lon="4.17876">
        <ele>217.8</ele>
        <time>2012-06-24T13:55:58Z</time>
      </trkpt>
      <trkpt lat="44.39204" lon="4.17866">
        <ele>214.3</ele>
        <time>2012-06-24T13:56:18Z</time>
      </trkpt>
      <trkpt lat="44.39201" lon="4.17855">
        <ele>208</ele>
        <time>2012-06-24T13:56:35Z</time>
      </trkpt>
      <trkpt lat="44.39206" lon="4.17846">
        <ele>214.6</ele>
        <time>2012-06-24T13:56:54Z</time>
      </trkpt>
      <trkpt lat="44.39203" lon="4.17834">
        <ele>207.1</ele>
        <time>2012-06-24T13:57:19Z</time>
      </trkpt>
      <trkpt lat="44.39201" lon="4.17822">
        <ele>213.3</ele>
        <time>2012-06-24T13:57:49Z</time>
      </trkpt>
      <trkpt lat="44.39204" lon="4.1781">
        <ele>209.1</ele>
        <time>2012-06-24T13:58:02Z</time>
      </trkpt>
      <trkpt lat="44.39207" lon="4.17799">
        <ele>210</ele>
        <time>2012-06-24T13:58:20Z</time>
      </trkpt>
      <trkpt lat="44.39215" lon="4.17796">
        <ele>215.6</ele>
        <time>2012-06-24T13:58:40Z</time>
      </trkpt>
      <trkpt lat="44.39224" lon="4.17795">
        <ele>217.1</ele>
        <time>2012-06-24T13:58:54Z</time>
      </trkpt>
      <trkpt lat="44.39231" lon="4.1779">
        <ele>221.3</ele>
        <time>2012-06-24T13:59:07Z</time>
      </trkpt>
      <trkpt lat="44.3924" lon="4.17791">
        <ele>223.8</ele>
        <time>2012-06-24T13:59:28Z</time>
      </trkpt>
      <trkpt lat="44.39249" lon="4.17791">
        <ele>220</ele>
        <time>2012-06-24T13:59:42Z</time>
      </trkpt>
      <trkpt lat="44.39256" lon="4.17785">
        <ele>219.3</ele>
        <time>2012-06-24T13:59:54Z</time>
      </trkpt>
      <trkpt lat="44.39264" lon="4.17783">
        <ele>222</ele>
        <time>2012-06-24T14:00:09Z</time>
      </trkpt>
      <trkpt lat="44.39271" lon="4.1778">
        <ele>223.3</ele>
        <time>2012-06-24T14:00:25Z</time>
      </trkpt>
      <trkpt lat="44.3928" lon="4.17781">
        <ele>224.1</ele>
        <time>2012-06-24T14:00:36Z</time>
      </trkpt>
      <trkpt lat="44.39288" lon="4.17776">
        <ele>225.1</ele>
        <time>2012-06-24T14:00:51Z</time>
      </trkpt>
      <trkpt lat="44.39295" lon="4.17769">
        <ele>221</ele>
        <time>2012-06-24T14:01:00Z</time>
      </trkpt>
      <trkpt lat="44.39302" lon="4.17763">
        <ele>218.1</ele>
        <time>2012-06-24T14:01:10Z</time>
      </trkpt>
      <trkpt lat="44.3931" lon="4.17759">
        <ele>212.6</ele>
        <time>2012-06-24T14:01:18Z</time>
      </trkpt>
      <trkpt lat="44.39315" lon="4.17749">
        <ele>207.6</ele>
        <time>2012-06-24T14:01:31Z</time>
      </trkpt>
      <trkpt lat="44.39317" lon="4.17738">
        <ele>203.5</ele>
        <time>2012-06-24T14:01:40Z</time>
      </trkpt>
      <trkpt lat="44.39324" lon="4.17731">
        <ele>206.6</ele>
        <time>2012-06-24T14:01:59Z</time>
      </trkpt>
      <trkpt lat="44.39333" lon="4.17728">
        <ele>207.1</ele>
        <time>2012-06-24T14:02:13Z</time>
      </trkpt>
      <trkpt lat="44.39341" lon="4.17725">
        <ele>204.8</ele>
        <time>2012-06-24T14:02:27Z</time>
      </trkpt>
      <trkpt lat="44.39349" lon="4.17731">
        <ele>203.3</ele>
        <time>2012-06-24T14:02:45Z</time>
      </trkpt>
      <trkpt lat="44.39351" lon="4.17743">
        <ele>201.1</ele>
        <time>2012-06-24T14:02:58Z</time>
      </trkpt>
      <trkpt lat="44.39348" lon="4.17754">
        <ele>205.5</ele>
        <time>2012-06-24T14:03:06Z</time>
      </trkpt>
      <trkpt lat="44.39346" lon="4.17765">
        <ele>208</ele>
        <time>2012-06-24T14:03:16Z</time>
      </trkpt>
      <trkpt lat="44.39349" lon="4.17777">
        <ele>205.6</ele>
        <time>2012-06-24T14:03:24Z</time>
      </trkpt>
      <trkpt lat="44.39353" lon="4.17787">
        <ele>201.6</ele>
        <time>2012-06-24T14:03:37Z</time>
      </trkpt>
      <trkpt lat="44.39356" lon="4.17798">
        <ele>198.6</ele>
        <time>2012-06-24T14:03:47Z</time>
      </trkpt>
      <trkpt lat="44.39362" lon="4.17806">
        <ele>199.6</ele>
        <time>2012-06-24T14:03:57Z</time>
      </trkpt>
      <trkpt lat="44.3937" lon="4.1781">
        <ele>204.6</ele>
        <time>2012-06-24T14:04:07Z</time>
      </trkpt>
      <trkpt lat="44.39379" lon="4.17809">
        <ele>202.6</ele>
        <time>2012-06-24T14:04:15Z</time>
      </trkpt>
      <trkpt lat="44.39387" lon="4.17812">
        <ele>197.1</ele>
        <time>2012-06-24T14:04:25Z</time>
      </trkpt>
      <trkpt lat="44.39396" lon="4.17816">
        <ele>199.1</ele>
        <time>2012-06-24T14:04:35Z</time>
      </trkpt>
      <trkpt lat="44.39404" lon="4.17821">
        <ele>201.3</ele>
        <time>2012-06-24T14:04:44Z</time>
      </trkpt>
      <trkpt lat="44.3941" lon="4.17828">
        <ele>198.3</ele>
        <time>2012-06-24T14:04:53Z</time>
      </trkpt>
      <trkpt lat="44.39416" lon="4.17837">
        <ele>201.6</ele>
        <time>2012-06-24T14:05:01Z</time>
      </trkpt>
      <trkpt lat="44.39421" lon="4.17846">
        <ele>205.1</ele>
        <time>2012-06-24T14:05:10Z</time>
      </trkpt>
      <trkpt lat="44.39428" lon="4.17853">
        <ele>207.1</ele>
        <time>2012-06-24T14:05:20Z</time>
      </trkpt>
      <trkpt lat="44.39437" lon="4.17855">
        <ele>206.1</ele>
        <time>2012-06-24T14:05:29Z</time>
      </trkpt>
      <trkpt lat="44.39445" lon="4.17855">
        <ele>209.8</ele>
        <time>2012-06-24T14:05:45Z</time>
      </trkpt>
      <trkpt lat="44.39454" lon="4.17855">
        <ele>228.5</ele>
        <time>2012-06-24T14:06:10Z</time>
      </trkpt>
      <trkpt lat="44.39461" lon="4.1785">
        <ele>209.3</ele>
        <time>2012-06-24T14:07:25Z</time>
      </trkpt>
      <trkpt lat="44.39463" lon="4.17839">
        <ele>200.3</ele>
        <time>2012-06-24T14:07:37Z</time>
      </trkpt>
      <trkpt lat="44.39462" lon="4.17827">
        <ele>195.8</ele>
        <time>2012-06-24T14:07:47Z</time>
      </trkpt>
      <trkpt lat="44.39466" lon="4.17816">
        <ele>191.3</ele>
        <time>2012-06-24T14:07:57Z</time>
      </trkpt>
      <trkpt lat="44.39464" lon="4.17805">
        <ele>191.1</ele>
        <time>2012-06-24T14:08:04Z</time>
      </trkpt>
      <trkpt lat="44.39466" lon="4.17794">
        <ele>184.8</ele>
        <time>2012-06-24T14:08:12Z</time>
      </trkpt>
      <trkpt lat="44.39474" lon="4.17789">
        <ele>203.3</ele>
        <time>2012-06-24T14:10:08Z</time>
      </trkpt>
      <trkpt lat="44.39481" lon="4.17793">
        <ele>207</ele>
        <time>2012-06-24T14:10:18Z</time>
      </trkpt>
      <trkpt lat="44.3949" lon="4.17795">
        <ele>201.6</ele>
        <time>2012-06-24T14:10:31Z</time>
      </trkpt>
      <trkpt lat="44.39498" lon="4.17798">
        <ele>200.8</ele>
        <time>2012-06-24T14:10:38Z</time>
      </trkpt>
      <trkpt lat="44.39506" lon="4.17798">
        <ele>203.5</ele>
        <time>2012-06-24T14:10:44Z</time>
      </trkpt>
      <trkpt lat="44.39514" lon="4.17796">
        <ele>202.8</ele>
        <time>2012-06-24T14:10:51Z</time>
      </trkpt>
      <trkpt lat="44.39523" lon="4.17801">
        <ele>200.1</ele>
        <time>2012-06-24T14:11:02Z</time>
      </trkpt>
      <trkpt lat="44.3953" lon="4.17806">
        <ele>197.1</ele>
        <time>2012-06-24T14:11:11Z</time>
      </trkpt>
      <trkpt lat="44.39537" lon="4.17811">
        <ele>199.1</ele>
        <time>2012-06-24T14:11:18Z</time>
      </trkpt>
      <trkpt lat="44.39545" lon="4.17818">
        <ele>199.5</ele>
        <time>2012-06-24T14:11:26Z</time>
      </trkpt>
      <trkpt lat="44.39551" lon="4.17825">
        <ele>202.1</ele>
        <time>2012-06-24T14:11:33Z</time>
      </trkpt>
      <trkpt lat="44.39559" lon="4.17829">
        <ele>199.6</ele>
        <time>2012-06-24T14:11:44Z</time>
      </trkpt>
      <trkpt lat="44.39566" lon="4.17835">
        <ele>202.5</ele>
        <time>2012-06-24T14:11:50Z</time>
      </trkpt>
      <trkpt lat="44.39572" lon="4.17843">
        <ele>205</ele>
        <time>2012-06-24T14:11:58Z</time>
      </trkpt>
      <trkpt lat="44.39579" lon="4.17846">
        <ele>205.1</ele>
        <time>2012-06-24T14:12:09Z</time>
      </trkpt>
      <trkpt lat="44.39587" lon="4.17843">
        <ele>204.3</ele>
        <time>2012-06-24T14:12:16Z</time>
      </trkpt>
      <trkpt lat="44.39596" lon="4.17845">
        <ele>203.3</ele>
        <time>2012-06-24T14:12:24Z</time>
      </trkpt>
      <trkpt lat="44.39603" lon="4.17852">
        <ele>201.5</ele>
        <time>2012-06-24T14:12:34Z</time>
      </trkpt>
      <trkpt lat="44.3961" lon="4.17856">
        <ele>202.8</ele>
        <time>2012-06-24T14:12:41Z</time>
      </trkpt>
      <trkpt lat="44.39617" lon="4.17863">
        <ele>206.5</ele>
        <time>2012-06-24T14:12:49Z</time>
      </trkpt>
      <trkpt lat="44.39625" lon="4.17865">
        <ele>204.6</ele>
        <time>2012-06-24T14:12:58Z</time>
      </trkpt>
      <trkpt lat="44.39632" lon="4.17872">
        <ele>207.3</ele>
        <time>2012-06-24T14:13:04Z</time>
      </trkpt>
      <trkpt lat="44.39639" lon="4.17876">
        <ele>210</ele>
        <time>2012-06-24T14:13:12Z</time>
      </trkpt>
      <trkpt lat="44.39648" lon="4.17878">
        <ele>208.8</ele>
        <time>2012-06-24T14:13:24Z</time>
      </trkpt>
      <trkpt lat="44.39654" lon="4.17887">
        <ele>213.3</ele>
        <time>2012-06-24T14:13:38Z</time>
      </trkpt>
      <trkpt lat="44.39663" lon="4.17884">
        <ele>213.5</ele>
        <time>2012-06-24T14:13:49Z</time>
      </trkpt>
      <trkpt lat="44.39669" lon="4.17877">
        <ele>208.5</ele>
        <time>2012-06-24T14:13:59Z</time>
      </trkpt>
      <trkpt lat="44.39676" lon="4.17869">
        <ele>206.6</ele>
        <time>2012-06-24T14:14:10Z</time>
      </trkpt>
      <trkpt lat="44.39683" lon="4.17863">
        <ele>205.8</ele>
        <time>2012-06-24T14:14:17Z</time>
      </trkpt>
      <trkpt lat="44.39688" lon="4.17853">
        <ele>211.3</ele>
        <time>2012-06-24T14:14:29Z</time>
      </trkpt>
      <trkpt lat="44.39691" lon="4.17842">
        <ele>211.6</ele>
        <time>2012-06-24T14:14:43Z</time>
      </trkpt>
      <trkpt lat="44.39698" lon="4.17835">
        <ele>214.5</ele>
        <time>2012-06-24T14:14:58Z</time>
      </trkpt>
      <trkpt lat="44.39704" lon="4.17827">
        <ele>213</ele>
        <time>2012-06-24T14:15:10Z</time>
      </trkpt>
      <trkpt lat="44.39711" lon="4.1782">
        <ele>213.3</ele>
        <time>2012-06-24T14:15:19Z</time>
      </trkpt>
      <trkpt lat="44.39718" lon="4.17812">
        <ele>209.8</ele>
        <time>2012-06-24T14:15:28Z</time>
      </trkpt>
      <trkpt lat="44.39721" lon="4.17802">
        <ele>208.1</ele>
        <time>2012-06-24T14:15:41Z</time>
      </trkpt>
      <trkpt lat="44.39724" lon="4.1779">
        <ele>215.8</ele>
        <time>2012-06-24T14:15:58Z</time>
      </trkpt>
      <trkpt lat="44.39729" lon="4.1778">
        <ele>216.6</ele>
        <time>2012-06-24T14:16:10Z</time>
      </trkpt>
      <trkpt lat="44.39731" lon="4.17768">
        <ele>216.8</ele>
        <time>2012-06-24T14:16:21Z</time>
      </trkpt>
      <trkpt lat="44.39735" lon="4.17758">
        <ele>214.6</ele>
        <time>2012-06-24T14:16:31Z</time>
      </trkpt>
      <trkpt lat="44.39741" lon="4.17749">
        <ele>213.3</ele>
        <time>2012-06-24T14:16:42Z</time>
      </trkpt>
      <trkpt lat="44.3975" lon="4.17747">
        <ele>213.8</ele>
        <time>2012-06-24T14:16:53Z</time>
      </trkpt>
      <trkpt lat="44.39758" lon="4.17745">
        <ele>218.3</ele>
        <time>2012-06-24T14:17:06Z</time>
      </trkpt>
      <trkpt lat="44.39766" lon="4.17741">
        <ele>216.5</ele>
        <time>2012-06-24T14:17:16Z</time>
      </trkpt>
      <trkpt lat="44.3977" lon="4.1773">
        <ele>216.3</ele>
        <time>2012-06-24T14:17:29Z</time>
      </trkpt>
      <trkpt lat="44.39776" lon="4.17721">
        <ele>219.5</ele>
        <time>2012-06-24T14:17:44Z</time>
      </trkpt>
      <trkpt lat="44.39785" lon="4.17718">
        <ele>221.3</ele>
        <time>2012-06-24T14:17:54Z</time>
      </trkpt>
      <trkpt lat="44.39789" lon="4.17709">
        <ele>218</ele>
        <time>2012-06-24T14:18:04Z</time>
      </trkpt>
      <trkpt lat="44.39797" lon="4.17703">
        <ele>213.3</ele>
        <time>2012-06-24T14:18:14Z</time>
      </trkpt>
      <trkpt lat="44.39802" lon="4.17693">
        <ele>207.6</ele>
        <time>2012-06-24T14:18:23Z</time>
      </trkpt>
      <trkpt lat="44.39809" lon="4.17685">
        <ele>214.3</ele>
        <time>2012-06-24T14:18:33Z</time>
      </trkpt>
      <trkpt lat="44.39816" lon="4.17678">
        <ele>223.1</ele>
        <time>2012-06-24T14:18:48Z</time>
      </trkpt>
      <trkpt lat="44.39822" lon="4.17669">
        <ele>222.8</ele>
        <time>2012-06-24T14:18:58Z</time>
      </trkpt>
      <trkpt lat="44.39826" lon="4.17658">
        <ele>224.3</ele>
        <time>2012-06-24T14:19:07Z</time>
      </trkpt>
      <trkpt lat="44.39831" lon="4.1765">
        <ele>230.1</ele>
        <time>2012-06-24T14:19:19Z</time>
      </trkpt>
      <trkpt lat="44.39836" lon="4.1764">
        <ele>229.8</ele>
        <time>2012-06-24T14:19:30Z</time>
      </trkpt>
      <trkpt lat="44.3984" lon="4.17629">
        <ele>226.3</ele>
        <time>2012-06-24T14:19:39Z</time>
      </trkpt>
      <trkpt lat="44.39844" lon="4.17619">
        <ele>223.3</ele>
        <time>2012-06-24T14:19:49Z</time>
      </trkpt>
      <trkpt lat="44.39846" lon="4.17608">
        <ele>224.1</ele>
        <time>2012-06-24T14:20:00Z</time>
      </trkpt>
      <trkpt lat="44.39847" lon="4.17595">
        <ele>224.3</ele>
        <time>2012-06-24T14:20:12Z</time>
      </trkpt>
      <trkpt lat="44.39849" lon="4.17583">
        <ele>222.5</ele>
        <time>2012-06-24T14:20:24Z</time>
      </trkpt>
      <trkpt lat="44.3985" lon="4.17572">
        <ele>220.5</ele>
        <time>2012-06-24T14:20:33Z</time>
      </trkpt>
      <trkpt lat="44.39847" lon="4.1756">
        <ele>222.8</ele>
        <time>2012-06-24T14:20:44Z</time>
      </trkpt>
      <trkpt lat="44.3985" lon="4.17549">
        <ele>226.3</ele>
        <time>2012-06-24T14:20:58Z</time>
      </trkpt>
      <trkpt lat="44.39855" lon="4.1754">
        <ele>225.1</ele>
        <time>2012-06-24T14:21:09Z</time>
      </trkpt>
      <trkpt lat="44.39861" lon="4.17532">
        <ele>219.6</ele>
        <time>2012-06-24T14:21:18Z</time>
      </trkpt>
      <trkpt lat="44.39866" lon="4.17523">
        <ele>217.3</ele>
        <time>2012-06-24T14:21:26Z</time>
      </trkpt>
      <trkpt lat="44.39872" lon="4.17513">
        <ele>214.6</ele>
        <time>2012-06-24T14:21:36Z</time>
      </trkpt>
      <trkpt lat="44.39877" lon="4.17504">
        <ele>221.1</ele>
        <time>2012-06-24T14:21:48Z</time>
      </trkpt>
      <trkpt lat="44.39886" lon="4.17502">
        <ele>231.6</ele>
        <time>2012-06-24T14:22:06Z</time>
      </trkpt>
      <trkpt lat="44.39894" lon="4.17501">
        <ele>234.1</ele>
        <time>2012-06-24T14:22:18Z</time>
      </trkpt>
      <trkpt lat="44.39902" lon="4.17502">
        <ele>235.3</ele>
        <time>2012-06-24T14:22:28Z</time>
      </trkpt>
      <trkpt lat="44.39911" lon="4.17503">
        <ele>235.8</ele>
        <time>2012-06-24T14:22:37Z</time>
      </trkpt>
      <trkpt lat="44.3992" lon="4.17501">
        <ele>236.8</ele>
        <time>2012-06-24T14:22:47Z</time>
      </trkpt>
      <trkpt lat="44.39928" lon="4.17497">
        <ele>235.8</ele>
        <time>2012-06-24T14:22:58Z</time>
      </trkpt>
      <trkpt lat="44.39936" lon="4.17496">
        <ele>236.6</ele>
        <time>2012-06-24T14:23:06Z</time>
      </trkpt>
      <trkpt lat="44.39944" lon="4.17496">
        <ele>237.1</ele>
        <time>2012-06-24T14:23:15Z</time>
      </trkpt>
      <trkpt lat="44.39953" lon="4.17495">
        <ele>236.3</ele>
        <time>2012-06-24T14:23:24Z</time>
      </trkpt>
      <trkpt lat="44.39961" lon="4.17494">
        <ele>233.6</ele>
        <time>2012-06-24T14:23:34Z</time>
      </trkpt>
      <trkpt lat="44.39969" lon="4.17489">
        <ele>232.1</ele>
        <time>2012-06-24T14:23:44Z</time>
      </trkpt>
      <trkpt lat="44.39977" lon="4.17483">
        <ele>231.6</ele>
        <time>2012-06-24T14:23:53Z</time>
      </trkpt>
      <trkpt lat="44.39982" lon="4.17474">
        <ele>232.1</ele>
        <time>2012-06-24T14:24:02Z</time>
      </trkpt>
      <trkpt lat="44.3999" lon="4.17471">
        <ele>233.3</ele>
        <time>2012-06-24T14:24:10Z</time>
      </trkpt>
      <trkpt lat="44.39999" lon="4.17469">
        <ele>234.5</ele>
        <time>2012-06-24T14:24:17Z</time>
      </trkpt>
      <trkpt lat="44.40007" lon="4.17467">
        <ele>234.6</ele>
        <time>2012-06-24T14:24:24Z</time>
      </trkpt>
      <trkpt lat="44.40015" lon="4.17465">
        <ele>234.8</ele>
        <time>2012-06-24T14:24:32Z</time>
      </trkpt>
      <trkpt lat="44.40023" lon="4.17463">
        <ele>235.3</ele>
        <time>2012-06-24T14:24:41Z</time>
      </trkpt>
      <trkpt lat="44.40032" lon="4.1746">
        <ele>236.8</ele>
        <time>2012-06-24T14:24:52Z</time>
      </trkpt>
      <trkpt lat="44.40041" lon="4.1746">
        <ele>237.5</ele>
        <time>2012-06-24T14:25:01Z</time>
      </trkpt>
      <trkpt lat="44.40049" lon="4.1746">
        <ele>237.1</ele>
        <time>2012-06-24T14:25:11Z</time>
      </trkpt>
      <trkpt lat="44.40055" lon="4.17453">
        <ele>235.6</ele>
        <time>2012-06-24T14:25:21Z</time>
      </trkpt>
      <trkpt lat="44.40064" lon="4.17451">
        <ele>237.3</ele>
        <time>2012-06-24T14:25:32Z</time>
      </trkpt>
      <trkpt lat="44.40072" lon="4.17448">
        <ele>240.8</ele>
        <time>2012-06-24T14:25:45Z</time>
      </trkpt>
      <trkpt lat="44.4008" lon="4.17443">
        <ele>240.8</ele>
        <time>2012-06-24T14:25:55Z</time>
      </trkpt>
      <trkpt lat="44.40088" lon="4.17437">
        <ele>240.6</ele>
        <time>2012-06-24T14:26:08Z</time>
      </trkpt>
      <trkpt lat="44.40095" lon="4.17432">
        <ele>242.3</ele>
        <time>2012-06-24T14:26:18Z</time>
      </trkpt>
      <trkpt lat="44.40103" lon="4.1743">
        <ele>240.1</ele>
        <time>2012-06-24T14:26:31Z</time>
      </trkpt>
      <trkpt lat="44.40111" lon="4.17427">
        <ele>241</ele>
        <time>2012-06-24T14:26:40Z</time>
      </trkpt>
      <trkpt lat="44.40116" lon="4.17418">
        <ele>235.8</ele>
        <time>2012-06-24T14:26:49Z</time>
      </trkpt>
      <trkpt lat="44.40122" lon="4.17409">
        <ele>230.1</ele>
        <time>2012-06-24T14:27:01Z</time>
      </trkpt>
      <trkpt lat="44.40125" lon="4.17397">
        <ele>224.8</ele>
        <time>2012-06-24T14:27:12Z</time>
      </trkpt>
      <trkpt lat="44.40126" lon="4.17385">
        <ele>223.6</ele>
        <time>2012-06-24T14:27:22Z</time>
      </trkpt>
      <trkpt lat="44.4013" lon="4.17374">
        <ele>220.3</ele>
        <time>2012-06-24T14:27:33Z</time>
      </trkpt>
      <trkpt lat="44.40132" lon="4.17363">
        <ele>217.8</ele>
        <time>2012-06-24T14:27:44Z</time>
      </trkpt>
      <trkpt lat="44.40135" lon="4.17352">
        <ele>218.3</ele>
        <time>2012-06-24T14:27:56Z</time>
      </trkpt>
      <trkpt lat="44.40137" lon="4.1734">
        <ele>218.1</ele>
        <time>2012-06-24T14:28:08Z</time>
      </trkpt>
      <trkpt lat="44.4014" lon="4.17329">
        <ele>215.6</ele>
        <time>2012-06-24T14:28:22Z</time>
      </trkpt>
      <trkpt lat="44.40147" lon="4.17321">
        <ele>221.3</ele>
        <time>2012-06-24T14:28:34Z</time>
      </trkpt>
      <trkpt lat="44.40155" lon="4.17318">
        <ele>226.1</ele>
        <time>2012-06-24T14:28:46Z</time>
      </trkpt>
      <trkpt lat="44.40164" lon="4.17318">
        <ele>228.1</ele>
        <time>2012-06-24T14:28:53Z</time>
      </trkpt>
      <trkpt lat="44.40173" lon="4.17321">
        <ele>228</ele>
        <time>2012-06-24T14:29:02Z</time>
      </trkpt>
      <trkpt lat="44.40181" lon="4.17323">
        <ele>228.1</ele>
        <time>2012-06-24T14:29:11Z</time>
      </trkpt>
      <trkpt lat="44.40189" lon="4.17325">
        <ele>228.6</ele>
        <time>2012-06-24T14:29:19Z</time>
      </trkpt>
      <trkpt lat="44.40197" lon="4.17329">
        <ele>228.1</ele>
        <time>2012-06-24T14:29:29Z</time>
      </trkpt>
      <trkpt lat="44.40205" lon="4.17332">
        <ele>228.3</ele>
        <time>2012-06-24T14:29:36Z</time>
      </trkpt>
      <trkpt lat="44.40213" lon="4.17337">
        <ele>228.8</ele>
        <time>2012-06-24T14:29:45Z</time>
      </trkpt>
      <trkpt lat="44.4022" lon="4.17344">
        <ele>229</ele>
        <time>2012-06-24T14:29:55Z</time>
      </trkpt>
      <trkpt lat="44.40226" lon="4.17352">
        <ele>228.5</ele>
        <time>2012-06-24T14:30:05Z</time>
      </trkpt>
      <trkpt lat="44.40231" lon="4.17362">
        <ele>227.5</ele>
        <time>2012-06-24T14:30:16Z</time>
      </trkpt>
      <trkpt lat="44.40233" lon="4.17373">
        <ele>227.1</ele>
        <time>2012-06-24T14:30:27Z</time>
      </trkpt>
      <trkpt lat="44.40233" lon="4.17385">
        <ele>233.3</ele>
        <time>2012-06-24T14:31:53Z</time>
      </trkpt>
      <trkpt lat="44.40231" lon="4.17396">
        <ele>232.1</ele>
        <time>2012-06-24T14:32:03Z</time>
      </trkpt>
      <trkpt lat="44.40234" lon="4.17407">
        <ele>232.5</ele>
        <time>2012-06-24T14:32:13Z</time>
      </trkpt>
      <trkpt lat="44.40239" lon="4.17416">
        <ele>232.6</ele>
        <time>2012-06-24T14:32:21Z</time>
      </trkpt>
      <trkpt lat="44.40245" lon="4.17424">
        <ele>233.3</ele>
        <time>2012-06-24T14:32:30Z</time>
      </trkpt>
      <trkpt lat="44.40251" lon="4.17432">
        <ele>233.3</ele>
        <time>2012-06-24T14:32:39Z</time>
      </trkpt>
      <trkpt lat="44.40256" lon="4.17441">
        <ele>232.3</ele>
        <time>2012-06-24T14:32:48Z</time>
      </trkpt>
      <trkpt lat="44.40261" lon="4.17452">
        <ele>231.5</ele>
        <time>2012-06-24T14:32:59Z</time>
      </trkpt>
      <trkpt lat="44.40264" lon="4.17464">
        <ele>229.1</ele>
        <time>2012-06-24T14:33:10Z</time>
      </trkpt>
      <trkpt lat="44.40266" lon="4.17474">
        <ele>228.6</ele>
        <time>2012-06-24T14:33:19Z</time>
      </trkpt>
      <trkpt lat="44.4027" lon="4.17485">
        <ele>230.1</ele>
        <time>2012-06-24T14:33:27Z</time>
      </trkpt>
      <trkpt lat="44.40276" lon="4.17493">
        <ele>231.1</ele>
        <time>2012-06-24T14:33:36Z</time>
      </trkpt>
      <trkpt lat="44.40281" lon="4.17503">
        <ele>232</ele>
        <time>2012-06-24T14:33:46Z</time>
      </trkpt>
      <trkpt lat="44.40286" lon="4.17513">
        <ele>231.6</ele>
        <time>2012-06-24T14:33:57Z</time>
      </trkpt>
      <trkpt lat="44.40292" lon="4.17521">
        <ele>228.6</ele>
        <time>2012-06-24T14:34:08Z</time>
      </trkpt>
      <trkpt lat="44.40298" lon="4.1753">
        <ele>227.8</ele>
        <time>2012-06-24T14:34:21Z</time>
      </trkpt>
      <trkpt lat="44.40305" lon="4.17536">
        <ele>231</ele>
        <time>2012-06-24T14:34:34Z</time>
      </trkpt>
      <trkpt lat="44.40314" lon="4.17539">
        <ele>233</ele>
        <time>2012-06-24T14:34:50Z</time>
      </trkpt>
      <trkpt lat="44.40322" lon="4.17542">
        <ele>235.1</ele>
        <time>2012-06-24T14:35:05Z</time>
      </trkpt>
      <trkpt lat="44.4033" lon="4.17544">
        <ele>234.5</ele>
        <time>2012-06-24T14:35:19Z</time>
      </trkpt>
      <trkpt lat="44.40339" lon="4.17545">
        <ele>236.5</ele>
        <time>2012-06-24T14:35:39Z</time>
      </trkpt>
      <trkpt lat="44.40342" lon="4.17556">
        <ele>240</ele>
        <time>2012-06-24T14:36:02Z</time>
      </trkpt>
      <trkpt lat="44.40345" lon="4.17546">
        <ele>241.5</ele>
        <time>2012-06-24T14:36:22Z</time>
      </trkpt>
      <trkpt lat="44.40352" lon="4.17539">
        <ele>238.6</ele>
        <time>2012-06-24T14:36:50Z</time>
      </trkpt>
      <trkpt lat="44.40359" lon="4.17547">
        <ele>238.6</ele>
        <time>2012-06-24T14:37:43Z</time>
      </trkpt>
      <trkpt lat="44.40352" lon="4.1754">
        <ele>242.1</ele>
        <time>2012-06-24T14:38:19Z</time>
      </trkpt>
      <trkpt lat="44.40348" lon="4.17551">
        <ele>243.3</ele>
        <time>2012-06-24T14:38:50Z</time>
      </trkpt>
      <trkpt lat="44.40341" lon="4.17544">
        <ele>240.8</ele>
        <time>2012-06-24T14:40:38Z</time>
      </trkpt>
      <trkpt lat="44.40332" lon="4.17542">
        <ele>239.6</ele>
        <time>2012-06-24T14:40:50Z</time>
      </trkpt>
      <trkpt lat="44.40324" lon="4.17543">
        <ele>239.5</ele>
        <time>2012-06-24T14:43:15Z</time>
      </trkpt>
      <trkpt lat="44.40315" lon="4.1754">
        <ele>237</ele>
        <time>2012-06-24T14:43:29Z</time>
      </trkpt>
      <trkpt lat="44.40306" lon="4.17539">
        <ele>234</ele>
        <time>2012-06-24T14:43:40Z</time>
      </trkpt>
      <trkpt lat="44.40298" lon="4.17536">
        <ele>231.5</ele>
        <time>2012-06-24T14:43:50Z</time>
      </trkpt>
      <trkpt lat="44.40291" lon="4.17528">
        <ele>230.1</ele>
        <time>2012-06-24T14:44:48Z</time>
      </trkpt>
      <trkpt lat="44.40287" lon="4.17517">
        <ele>230.1</ele>
        <time>2012-06-24T14:44:58Z</time>
      </trkpt>
      <trkpt lat="44.40284" lon="4.17506">
        <ele>231.8</ele>
        <time>2012-06-24T14:45:07Z</time>
      </trkpt>
      <trkpt lat="44.40278" lon="4.17497">
        <ele>231.8</ele>
        <time>2012-06-24T14:45:15Z</time>
      </trkpt>
      <trkpt lat="44.40272" lon="4.17488">
        <ele>231.5</ele>
        <time>2012-06-24T14:45:25Z</time>
      </trkpt>
      <trkpt lat="44.40267" lon="4.17479">
        <ele>230.5</ele>
        <time>2012-06-24T14:45:33Z</time>
      </trkpt>
      <trkpt lat="44.40263" lon="4.17468">
        <ele>228.6</ele>
        <time>2012-06-24T14:45:42Z</time>
      </trkpt>
      <trkpt lat="44.4026" lon="4.17456">
        <ele>229.1</ele>
        <time>2012-06-24T14:45:54Z</time>
      </trkpt>
      <trkpt lat="44.40259" lon="4.17445">
        <ele>232</ele>
        <time>2012-06-24T14:46:06Z</time>
      </trkpt>
      <trkpt lat="44.40254" lon="4.17435">
        <ele>233.5</ele>
        <time>2012-06-24T14:46:17Z</time>
      </trkpt>
      <trkpt lat="44.40247" lon="4.17427">
        <ele>234.1</ele>
        <time>2012-06-24T14:46:28Z</time>
      </trkpt>
      <trkpt lat="44.40241" lon="4.17418">
        <ele>232.5</ele>
        <time>2012-06-24T14:46:36Z</time>
      </trkpt>
      <trkpt lat="44.40237" lon="4.17409">
        <ele>230.6</ele>
        <time>2012-06-24T14:46:44Z</time>
      </trkpt>
      <trkpt lat="44.40233" lon="4.17398">
        <ele>230.6</ele>
        <time>2012-06-24T14:46:52Z</time>
      </trkpt>
      <trkpt lat="44.40233" lon="4.17386">
        <ele>228.6</ele>
        <time>2012-06-24T14:47:09Z</time>
      </trkpt>
      <trkpt lat="44.40233" lon="4.17375">
        <ele>228.1</ele>
        <time>2012-06-24T14:47:19Z</time>
      </trkpt>
      <trkpt lat="44.40229" lon="4.17363">
        <ele>227</ele>
        <time>2012-06-24T14:47:29Z</time>
      </trkpt>
      <trkpt lat="44.40226" lon="4.17353">
        <ele>228.6</ele>
        <time>2012-06-24T14:47:37Z</time>
      </trkpt>
      <trkpt lat="44.40222" lon="4.17342">
        <ele>229.8</ele>
        <time>2012-06-24T14:47:45Z</time>
      </trkpt>
      <trkpt lat="44.40215" lon="4.17335">
        <ele>231.6</ele>
        <time>2012-06-24T14:47:54Z</time>
      </trkpt>
      <trkpt lat="44.40208" lon="4.17328">
        <ele>232.3</ele>
        <time>2012-06-24T14:48:04Z</time>
      </trkpt>
      <trkpt lat="44.402" lon="4.17323">
        <ele>231.6</ele>
        <time>2012-06-24T14:48:13Z</time>
      </trkpt>
      <trkpt lat="44.40192" lon="4.1732">
        <ele>231.3</ele>
        <time>2012-06-24T14:48:23Z</time>
      </trkpt>
      <trkpt lat="44.40184" lon="4.17316">
        <ele>230.3</ele>
        <time>2012-06-24T14:48:31Z</time>
      </trkpt>
      <trkpt lat="44.40175" lon="4.17314">
        <ele>230.8</ele>
        <time>2012-06-24T14:48:40Z</time>
      </trkpt>
      <trkpt lat="44.40167" lon="4.17313">
        <ele>229.6</ele>
        <time>2012-06-24T14:48:49Z</time>
      </trkpt>
      <trkpt lat="44.40158" lon="4.17312">
        <ele>230.6</ele>
        <time>2012-06-24T14:48:59Z</time>
      </trkpt>
      <trkpt lat="44.4015" lon="4.1731">
        <ele>224</ele>
        <time>2012-06-24T14:49:10Z</time>
      </trkpt>
      <trkpt lat="44.40143" lon="4.17317">
        <ele>224.1</ele>
        <time>2012-06-24T14:49:21Z</time>
      </trkpt>
      <trkpt lat="44.40139" lon="4.17327">
        <ele>229.5</ele>
        <time>2012-06-24T14:49:30Z</time>
      </trkpt>
      <trkpt lat="44.40135" lon="4.17338">
        <ele>231.6</ele>
        <time>2012-06-24T14:49:41Z</time>
      </trkpt>
      <trkpt lat="44.40133" lon="4.17349">
        <ele>233.3</ele>
        <time>2012-06-24T14:49:50Z</time>
      </trkpt>
      <trkpt lat="44.40132" lon="4.17361">
        <ele>227.6</ele>
        <time>2012-06-24T14:50:04Z</time>
      </trkpt>
      <trkpt lat="44.40131" lon="4.17372">
        <ele>230.6</ele>
        <time>2012-06-24T14:50:13Z</time>
      </trkpt>
      <trkpt lat="44.40128" lon="4.17384">
        <ele>236.6</ele>
        <time>2012-06-24T14:50:20Z</time>
      </trkpt>
      <trkpt lat="44.40127" lon="4.17396">
        <ele>233.8</ele>
        <time>2012-06-24T14:50:34Z</time>
      </trkpt>
      <trkpt lat="44.40126" lon="4.17408">
        <ele>232.6</ele>
        <time>2012-06-24T14:50:45Z</time>
      </trkpt>
      <trkpt lat="44.40118" lon="4.17414">
        <ele>230.3</ele>
        <time>2012-06-24T14:50:57Z</time>
      </trkpt>
      <trkpt lat="44.4011" lon="4.17419">
        <ele>230.1</ele>
        <time>2012-06-24T14:51:08Z</time>
      </trkpt>
      <trkpt lat="44.40102" lon="4.17424">
        <ele>233.3</ele>
        <time>2012-06-24T14:51:20Z</time>
      </trkpt>
      <trkpt lat="44.40094" lon="4.17428">
        <ele>234.1</ele>
        <time>2012-06-24T14:51:33Z</time>
      </trkpt>
      <trkpt lat="44.40086" lon="4.17431">
        <ele>229.5</ele>
        <time>2012-06-24T14:51:44Z</time>
      </trkpt>
      <trkpt lat="44.40078" lon="4.17435">
        <ele>230.1</ele>
        <time>2012-06-24T14:51:56Z</time>
      </trkpt>
      <trkpt lat="44.4007" lon="4.1744">
        <ele>226.8</ele>
        <time>2012-06-24T14:52:06Z</time>
      </trkpt>
      <trkpt lat="44.40064" lon="4.17449">
        <ele>225.6</ele>
        <time>2012-06-24T14:52:16Z</time>
      </trkpt>
      <trkpt lat="44.40056" lon="4.17453">
        <ele>230.1</ele>
        <time>2012-06-24T14:52:25Z</time>
      </trkpt>
      <trkpt lat="44.40048" lon="4.17456">
        <ele>232.3</ele>
        <time>2012-06-24T14:52:34Z</time>
      </trkpt>
      <trkpt lat="44.40039" lon="4.17457">
        <ele>232.8</ele>
        <time>2012-06-24T14:52:42Z</time>
      </trkpt>
      <trkpt lat="44.40031" lon="4.17459">
        <ele>232.1</ele>
        <time>2012-06-24T14:52:50Z</time>
      </trkpt>
      <trkpt lat="44.40022" lon="4.17461">
        <ele>232.3</ele>
        <time>2012-06-24T14:52:59Z</time>
      </trkpt>
      <trkpt lat="44.40014" lon="4.17463">
        <ele>233</ele>
        <time>2012-06-24T14:53:07Z</time>
      </trkpt>
      <trkpt lat="44.40005" lon="4.17464">
        <ele>232.8</ele>
        <time>2012-06-24T14:53:16Z</time>
      </trkpt>
      <trkpt lat="44.39996" lon="4.17465">
        <ele>233.6</ele>
        <time>2012-06-24T14:53:26Z</time>
      </trkpt>
      <trkpt lat="44.39988" lon="4.17468">
        <ele>231.8</ele>
        <time>2012-06-24T14:53:37Z</time>
      </trkpt>
      <trkpt lat="44.39981" lon="4.17476">
        <ele>232.1</ele>
        <time>2012-06-24T14:53:47Z</time>
      </trkpt>
      <trkpt lat="44.39974" lon="4.17482">
        <ele>231.6</ele>
        <time>2012-06-24T14:53:55Z</time>
      </trkpt>
      <trkpt lat="44.39966" lon="4.17486">
        <ele>232</ele>
        <time>2012-06-24T14:54:07Z</time>
      </trkpt>
      <trkpt lat="44.39957" lon="4.1749">
        <ele>235.1</ele>
        <time>2012-06-24T14:54:17Z</time>
      </trkpt>
      <trkpt lat="44.39949" lon="4.17491">
        <ele>233.1</ele>
        <time>2012-06-24T14:54:28Z</time>
      </trkpt>
      <trkpt lat="44.3994" lon="4.17491">
        <ele>235.5</ele>
        <time>2012-06-24T14:54:36Z</time>
      </trkpt>
      <trkpt lat="44.39932" lon="4.17492">
        <ele>233.8</ele>
        <time>2012-06-24T14:54:48Z</time>
      </trkpt>
      <trkpt lat="44.39923" lon="4.17494">
        <ele>232.6</ele>
        <time>2012-06-24T14:54:59Z</time>
      </trkpt>
      <trkpt lat="44.39915" lon="4.17496">
        <ele>233.6</ele>
        <time>2012-06-24T14:55:07Z</time>
      </trkpt>
      <trkpt lat="44.39907" lon="4.17496">
        <ele>235</ele>
        <time>2012-06-24T14:55:15Z</time>
      </trkpt>
      <trkpt lat="44.39899" lon="4.17497">
        <ele>235.8</ele>
        <time>2012-06-24T14:55:24Z</time>
      </trkpt>
      <trkpt lat="44.39891" lon="4.17498">
        <ele>233.8</ele>
        <time>2012-06-24T14:55:35Z</time>
      </trkpt>
      <trkpt lat="44.39882" lon="4.175">
        <ele>233.6</ele>
        <time>2012-06-24T14:55:47Z</time>
      </trkpt>
      <trkpt lat="44.39874" lon="4.17503">
        <ele>233.5</ele>
        <time>2012-06-24T14:55:58Z</time>
      </trkpt>
      <trkpt lat="44.39866" lon="4.1751">
        <ele>230.3</ele>
        <time>2012-06-24T14:56:08Z</time>
      </trkpt>
      <trkpt lat="44.39861" lon="4.17519">
        <ele>228.6</ele>
        <time>2012-06-24T14:56:16Z</time>
      </trkpt>
      <trkpt lat="44.39856" lon="4.17528">
        <ele>226</ele>
        <time>2012-06-24T14:56:27Z</time>
      </trkpt>
      <trkpt lat="44.39852" lon="4.1754">
        <ele>226.3</ele>
        <time>2012-06-24T14:56:38Z</time>
      </trkpt>
      <trkpt lat="44.39849" lon="4.1755">
        <ele>227.8</ele>
        <time>2012-06-24T14:56:48Z</time>
      </trkpt>
      <trkpt lat="44.39848" lon="4.17562">
        <ele>231.3</ele>
        <time>2012-06-24T14:56:59Z</time>
      </trkpt>
      <trkpt lat="44.39848" lon="4.17574">
        <ele>231</ele>
        <time>2012-06-24T14:57:12Z</time>
      </trkpt>
      <trkpt lat="44.39847" lon="4.17586">
        <ele>222.3</ele>
        <time>2012-06-24T14:57:29Z</time>
      </trkpt>
      <trkpt lat="44.39847" lon="4.17597">
        <ele>225.3</ele>
        <time>2012-06-24T14:57:37Z</time>
      </trkpt>
      <trkpt lat="44.39845" lon="4.17609">
        <ele>222.6</ele>
        <time>2012-06-24T14:57:49Z</time>
      </trkpt>
      <trkpt lat="44.39843" lon="4.17621">
        <ele>224.6</ele>
        <time>2012-06-24T14:57:59Z</time>
      </trkpt>
      <trkpt lat="44.3984" lon="4.17632">
        <ele>226.1</ele>
        <time>2012-06-24T14:58:08Z</time>
      </trkpt>
      <trkpt lat="44.39835" lon="4.17642">
        <ele>227.1</ele>
        <time>2012-06-24T14:58:18Z</time>
      </trkpt>
      <trkpt lat="44.3983" lon="4.17651">
        <ele>224.3</ele>
        <time>2012-06-24T14:58:29Z</time>
      </trkpt>
      <trkpt lat="44.39825" lon="4.17661">
        <ele>224.5</ele>
        <time>2012-06-24T14:58:37Z</time>
      </trkpt>
      <trkpt lat="44.3982" lon="4.1767">
        <ele>225.6</ele>
        <time>2012-06-24T14:58:46Z</time>
      </trkpt>
      <trkpt lat="44.39814" lon="4.17678">
        <ele>224.8</ele>
        <time>2012-06-24T14:58:56Z</time>
      </trkpt>
      <trkpt lat="44.39808" lon="4.17685">
        <ele>228.1</ele>
        <time>2012-06-24T14:59:02Z</time>
      </trkpt>
      <trkpt lat="44.39803" lon="4.17691">
        <ele>228.1</ele>
        <time>2012-06-24T14:59:08Z</time>
      </trkpt>
      <trkpt lat="44.39799" lon="4.17701">
        <ele>232.3</ele>
        <time>2012-06-24T14:59:13Z</time>
      </trkpt>
      <trkpt lat="44.39793" lon="4.1771">
        <ele>231.5</ele>
        <time>2012-06-24T14:59:25Z</time>
      </trkpt>
      <trkpt lat="44.39785" lon="4.17714">
        <ele>230.6</ele>
        <time>2012-06-24T14:59:39Z</time>
      </trkpt>
      <trkpt lat="44.39778" lon="4.17721">
        <ele>223.8</ele>
        <time>2012-06-24T14:59:54Z</time>
      </trkpt>
      <trkpt lat="44.39773" lon="4.17732">
        <ele>226.3</ele>
        <time>2012-06-24T15:00:04Z</time>
      </trkpt>
      <trkpt lat="44.39768" lon="4.17742">
        <ele>228.1</ele>
        <time>2012-06-24T15:00:14Z</time>
      </trkpt>
      <trkpt lat="44.39761" lon="4.17746">
        <ele>227.5</ele>
        <time>2012-06-24T15:00:23Z</time>
      </trkpt>
      <trkpt lat="44.39752" lon="4.17746">
        <ele>227.1</ele>
        <time>2012-06-24T15:00:34Z</time>
      </trkpt>
      <trkpt lat="44.39744" lon="4.17749">
        <ele>224</ele>
        <time>2012-06-24T15:00:48Z</time>
      </trkpt>
      <trkpt lat="44.39739" lon="4.17759">
        <ele>222.1</ele>
        <time>2012-06-24T15:00:59Z</time>
      </trkpt>
      <trkpt lat="44.39734" lon="4.17769">
        <ele>226.5</ele>
        <time>2012-06-24T15:01:06Z</time>
      </trkpt>
      <trkpt lat="44.3973" lon="4.1778">
        <ele>230.8</ele>
        <time>2012-06-24T15:01:15Z</time>
      </trkpt>
      <trkpt lat="44.39727" lon="4.17792">
        <ele>228.1</ele>
        <time>2012-06-24T15:01:29Z</time>
      </trkpt>
      <trkpt lat="44.39723" lon="4.17802">
        <ele>222.3</ele>
        <time>2012-06-24T15:01:42Z</time>
      </trkpt>
      <trkpt lat="44.39717" lon="4.17811">
        <ele>216.1</ele>
        <time>2012-06-24T15:01:56Z</time>
      </trkpt>
      <trkpt lat="44.3971" lon="4.17819">
        <ele>213.5</ele>
        <time>2012-06-24T15:02:08Z</time>
      </trkpt>
      <trkpt lat="44.39704" lon="4.17827">
        <ele>218.6</ele>
        <time>2012-06-24T15:02:14Z</time>
      </trkpt>
      <trkpt lat="44.39698" lon="4.17836">
        <ele>215.3</ele>
        <time>2012-06-24T15:02:26Z</time>
      </trkpt>
      <trkpt lat="44.39692" lon="4.17844">
        <ele>216.8</ele>
        <time>2012-06-24T15:02:39Z</time>
      </trkpt>
      <trkpt lat="44.39689" lon="4.17855">
        <ele>220.1</ele>
        <time>2012-06-24T15:02:50Z</time>
      </trkpt>
      <trkpt lat="44.39684" lon="4.17865">
        <ele>217.6</ele>
        <time>2012-06-24T15:03:02Z</time>
      </trkpt>
      <trkpt lat="44.39676" lon="4.1787">
        <ele>215.6</ele>
        <time>2012-06-24T15:03:14Z</time>
      </trkpt>
      <trkpt lat="44.39668" lon="4.17873">
        <ele>210.8</ele>
        <time>2012-06-24T15:03:25Z</time>
      </trkpt>
      <trkpt lat="44.39661" lon="4.17879">
        <ele>210</ele>
        <time>2012-06-24T15:03:40Z</time>
      </trkpt>
      <trkpt lat="44.39652" lon="4.17881">
        <ele>211.6</ele>
        <time>2012-06-24T15:03:59Z</time>
      </trkpt>
      <trkpt lat="44.39644" lon="4.17878">
        <ele>209.5</ele>
        <time>2012-06-24T15:04:14Z</time>
      </trkpt>
      <trkpt lat="44.39636" lon="4.17872">
        <ele>205.6</ele>
        <time>2012-06-24T15:04:25Z</time>
      </trkpt>
      <trkpt lat="44.3963" lon="4.17866">
        <ele>203</ele>
        <time>2012-06-24T15:04:34Z</time>
      </trkpt>
      <trkpt lat="44.39622" lon="4.17861">
        <ele>203.3</ele>
        <time>2012-06-24T15:04:41Z</time>
      </trkpt>
      <trkpt lat="44.39614" lon="4.17857">
        <ele>204.5</ele>
        <time>2012-06-24T15:04:49Z</time>
      </trkpt>
      <trkpt lat="44.39607" lon="4.17852">
        <ele>202.3</ele>
        <time>2012-06-24T15:04:59Z</time>
      </trkpt>
      <trkpt lat="44.39599" lon="4.17846">
        <ele>201.8</ele>
        <time>2012-06-24T15:05:10Z</time>
      </trkpt>
      <trkpt lat="44.39591" lon="4.17844">
        <ele>202.8</ele>
        <time>2012-06-24T15:05:18Z</time>
      </trkpt>
      <trkpt lat="44.39582" lon="4.17841">
        <ele>201.6</ele>
        <time>2012-06-24T15:05:27Z</time>
      </trkpt>
      <trkpt lat="44.39574" lon="4.17837">
        <ele>198.5</ele>
        <time>2012-06-24T15:05:35Z</time>
      </trkpt>
      <trkpt lat="44.39568" lon="4.17829">
        <ele>199.1</ele>
        <time>2012-06-24T15:05:45Z</time>
      </trkpt>
      <trkpt lat="44.39562" lon="4.1782">
        <ele>200</ele>
        <time>2012-06-24T15:05:55Z</time>
      </trkpt>
      <trkpt lat="44.39554" lon="4.17815">
        <ele>200.6</ele>
        <time>2012-06-24T15:06:03Z</time>
      </trkpt>
      <trkpt lat="44.39546" lon="4.17811">
        <ele>201.8</ele>
        <time>2012-06-24T15:06:10Z</time>
      </trkpt>
      <trkpt lat="44.39538" lon="4.17806">
        <ele>202.6</ele>
        <time>2012-06-24T15:06:17Z</time>
      </trkpt>
      <trkpt lat="44.39531" lon="4.17801">
        <ele>203.6</ele>
        <time>2012-06-24T15:06:25Z</time>
      </trkpt>
      <trkpt lat="44.39523" lon="4.17797">
        <ele>204.6</ele>
        <time>2012-06-24T15:06:32Z</time>
      </trkpt>
      <trkpt lat="44.39514" lon="4.17795">
        <ele>206.1</ele>
        <time>2012-06-24T15:06:41Z</time>
      </trkpt>
      <trkpt lat="44.39507" lon="4.17796">
        <ele>206.3</ele>
        <time>2012-06-24T15:06:46Z</time>
      </trkpt>
      <trkpt lat="44.39498" lon="4.17798">
        <ele>206.6</ele>
        <time>2012-06-24T15:06:54Z</time>
      </trkpt>
      <trkpt lat="44.39498" lon="4.17798">
        <ele>206.6</ele>
        <time>2012-06-24T15:06:54Z</time>
      </trkpt>
    </trkseg>
  </trk>
</gpx>